Island Chief — WDA7043 — position and weather

sailwx.info

Track history (hours):
 
Tides and Currents Weather Stations Pressure Air Temp Water Temp Dewpoint Dewpoint Depression Visibility Wind Speed Wind Dir Waves Ship Positions

Island Chief

Owner: Island Tug and Barge, SEATTLE, WA. More information available from US FCC via Universal Licensing System and Coast Guard Vessel Documentation Center.

Last reported at 2018-Apr-26 03:01 UTC. Time now 2018-Apr-26 03:45 UTC.
Position N 47°45' W 122°16'.

Length 21 m; draft 3 m.

Type: Towing. MMSI: 365798606.

Date/timePositionNaut miles runAvg speedWind from/ knotsBaromVisibWave heightAir tempDewpointWater temp
2018-Apr-26 03:01N 47°45' W 122°16'2 6.5
2018-Apr-26 02:43N 47°43' W 122°16'2 7.1
2018-Apr-26 02:28N 47°41' W 122°15'3 6.2
2018-Apr-26 02:00N 47°39' W 122°17'2 4.1
2018-Apr-26 01:30N 47°39' W 122°20'2 4.6
2018-Apr-26 01:00N 47°40' W 122°23'1 2.1
2018-Apr-26 00:30N 47°40' W 122°24'2 4.2
2018-Apr-26 00:00N 47°39' W 122°27'4 7.2
2018-Apr-25 23:30N 47°35' W 122°26'3 6.7
2018-Apr-25 23:00N 47°32' W 122°28'4 7.1
2018-Apr-25 22:30N 47°29' W 122°30'3 6.8
2018-Apr-25 22:00N 47°26' W 122°32'3 6.7
2018-Apr-25 21:30N 47°22' W 122°32'3 6.9
2018-Apr-25 21:00N 47°19' W 122°33'3 5.7
2018-Apr-25 20:30N 47°16' W 122°34'5 6.2
2018-Apr-25 19:43N 47°12' W 122°36'2 7.5
2018-Apr-25 19:29N 47°10' W 122°38'2 4.9
2018-Apr-25 19:00N 47°08' W 122°39'0 0.0
2018-Apr-25 18:30N 47°08' W 122°39'0 0.0
2018-Apr-25 17:59N 47°08' W 122°39'0 0.0
2018-Apr-25 17:28N 47°08' W 122°39'0 0.1
2018-Apr-25 17:00N 47°08' W 122°39'0 0.0
2018-Apr-25 16:29N 47°08' W 122°39'1 1.0
2018-Apr-25 15:54N 47°09' W 122°38'0 0.0
2018-Apr-25 15:29N 47°09' W 122°38'0 0.0
2018-Apr-25 14:51N 47°09' W 122°38'0 0.0
2018-Apr-25 14:21N 47°09' W 122°38'1 3.9
2018-Apr-25 14:00N 47°10' W 122°38'4 7.2
2018-Apr-25 13:30N 47°13' W 122°36'3 6.1
2018-Apr-25 13:00N 47°16' W 122°34'3 5.5
2018-Apr-25 12:30N 47°19' W 122°33'3 7.0
2018-Apr-25 12:00N 47°22' W 122°32'4 8.3
2018-Apr-25 11:30N 47°26' W 122°31'4 8.4
2018-Apr-25 11:00N 47°30' W 122°29'4 8.8
2018-Apr-25 10:30N 47°34' W 122°28'5 9.0
2018-Apr-25 10:00N 47°39' W 122°27'2 4.9
2018-Apr-25 09:31N 47°40' W 122°24'1 2.9
2018-Apr-25 09:00N 47°39' W 122°22'2 3.6
2018-Apr-25 08:30N 47°39' W 122°19'3 5.6
2018-Apr-25 08:00N 47°40' W 122°15'3 0.5
2018-Apr-25 02:46N 47°43' W 122°16'2 6.4
2018-Apr-25 02:30N 47°41' W 122°15'3 5.7
2018-Apr-25 02:00N 47°39' W 122°17'2 3.9
2018-Apr-25 01:31N 47°39' W 122°20'2 4.3
2018-Apr-25 01:01N 47°40' W 122°23'1 1.2
2018-Apr-25 00:31N 47°40' W 122°24'0 0.0
2018-Apr-25 00:00N 47°40' W 122°24'0 0.3
2018-Apr-24 23:30N 47°40' W 122°24'1 3.0
2018-Apr-24 23:01N 47°40' W 122°26'3 5.1
2018-Apr-24 22:30N 47°38' W 122°26'2 4.6
2018-Apr-24 22:00N 47°36' W 122°23'2 4.0
2018-Apr-24 21:29N 47°34' W 122°21'0 0.0
2018-Apr-24 20:59N 47°34' W 122°21'0 0.0
2018-Apr-24 20:30N 47°34' W 122°21'0 0.0
2018-Apr-24 20:00N 47°34' W 122°21'0 0.0
2018-Apr-24 19:30N 47°34' W 122°21'0 0.0
2018-Apr-24 19:00N 47°34' W 122°21'0 0.0
2018-Apr-24 18:30N 47°34' W 122°21'0 0.0
2018-Apr-24 18:00N 47°34' W 122°21'0 0.0
2018-Apr-24 17:30N 47°34' W 122°21'0 0.1
2018-Apr-24 17:00N 47°34' W 122°21'0 0.1
2018-Apr-24 16:30N 47°34' W 122°21'0 0.0
2018-Apr-24 16:00N 47°34' W 122°21'0 0.0
2018-Apr-24 15:30N 47°34' W 122°21'0 0.0
2018-Apr-24 15:00N 47°34' W 122°21'0 0.0
2018-Apr-24 14:29N 47°34' W 122°21'0 0.0
2018-Apr-24 14:00N 47°34' W 122°21'0 0.0
2018-Apr-24 13:30N 47°34' W 122°21'0 0.0
2018-Apr-24 13:01N 47°34' W 122°21'0 0.0
2018-Apr-24 12:30N 47°34' W 122°21'0 0.1
2018-Apr-24 12:00N 47°34' W 122°21'0 0.1
2018-Apr-24 11:31N 47°34' W 122°21'0 0.1
2018-Apr-24 11:00N 47°34' W 122°21'0 0.1
2018-Apr-24 10:30N 47°34' W 122°21'0 0.0
2018-Apr-24 10:00N 47°34' W 122°21'0 0.0
2018-Apr-24 09:30N 47°34' W 122°21'0 0.0
2018-Apr-24 09:00N 47°34' W 122°21'0 0.1
2018-Apr-24 08:30N 47°34' W 122°21'0 0.1
2018-Apr-24 08:00N 47°34' W 122°21'0 0.6
2018-Apr-24 07:30N 47°35' W 122°22'2 4.3
2018-Apr-24 07:00N 47°36' W 122°24'4 7.9
2018-Apr-24 06:30N 47°40' W 122°26'2 3.6
2018-Apr-24 06:01N 47°40' W 122°24'2 3.3
2018-Apr-24 05:31N 47°39' W 122°22'2 4.4
2018-Apr-24 05:00N 47°39' W 122°18'5 2.1
2018-Apr-24 02:47N 47°43' W 122°16'2 6.7
2018-Apr-24 02:30N 47°41' W 122°15'3 5.9
2018-Apr-24 02:00N 47°39' W 122°17'2 4.2
2018-Apr-24 01:30N 47°39' W 122°20'2 4.2
2018-Apr-24 01:00N 47°40' W 122°23'1 1.3
2018-Apr-24 00:30N 47°40' W 122°24'0 0.0
2018-Apr-24 00:00N 47°40' W 122°24'0 0.0
2018-Apr-23 23:31N 47°40' W 122°24'0 0.4
2018-Apr-23 23:01N 47°40' W 122°24'1 1.6
2018-Apr-23 22:30N 47°40' W 122°25'2 4.4
2018-Apr-23 22:01N 47°39' W 122°27'3 6.4
2018-Apr-23 21:31N 47°36' W 122°27'3 5.9
2018-Apr-23 21:01N 47°33' W 122°28'3 6.7
2018-Apr-23 20:30N 47°30' W 122°30'3 6.7
2018-Apr-23 20:01N 47°26' W 122°31'3 6.9
2018-Apr-23 19:30N 47°23' W 122°32'4 7.2
2018-Apr-23 19:00N 47°19' W 122°33'3 6.3
2018-Apr-23 18:29N 47°16' W 122°33'3 6.0
2018-Apr-23 18:00N 47°14' W 122°35'4 6.9
2018-Apr-23 17:30N 47°11' W 122°38'3 5.3
2018-Apr-23 17:00N 47°08' W 122°39'0 0.0
2018-Apr-23 16:28N 47°08' W 122°39'0 0.0
2018-Apr-23 15:58N 47°08' W 122°39'0 0.0
2018-Apr-23 15:30N 47°08' W 122°39'0 0.0
2018-Apr-23 14:59N 47°08' W 122°39'1 2.3
2018-Apr-23 14:30N 47°09' W 122°39'4 7.8
2018-Apr-23 14:00N 47°13' W 122°36'4 7.9
2018-Apr-23 13:30N 47°16' W 122°33'3 6.8
2018-Apr-23 13:00N 47°20' W 122°34'4 7.7
2018-Apr-23 12:31N 47°23' W 122°32'4 7.9
2018-Apr-23 12:00N 47°27' W 122°31'4 8.5
2018-Apr-23 11:30N 47°31' W 122°29'5 9.1
2018-Apr-23 11:00N 47°35' W 122°26'2 4.5
2018-Apr-23 10:30N 47°35' W 122°22'1 1.6
2018-Apr-23 10:00N 47°34' W 122°21'0 0.9
2018-Apr-23 09:30N 47°34' W 122°21'0 0.5
2018-Apr-23 08:59N 47°34' W 122°21'1 1.1
2018-Apr-23 08:27N 47°34' W 122°21'0 0.0
2018-Apr-23 07:56N 47°34' W 122°21'0 0.0
2018-Apr-23 07:30N 47°34' W 122°21'0 0.0
2018-Apr-23 07:00N 47°34' W 122°21'0 0.0
2018-Apr-23 06:30N 47°34' W 122°21'0 0.0
2018-Apr-23 05:58N 47°34' W 122°21'0 0.0
2018-Apr-23 05:30N 47°34' W 122°21'0 0.0
2018-Apr-23 05:00N 47°34' W 122°21'0 0.0
2018-Apr-23 04:30N 47°34' W 122°21'0 0.0
2018-Apr-23 04:00N 47°34' W 122°21'0 0.0
2018-Apr-23 03:30N 47°34' W 122°21'0 0.0
2018-Apr-23 03:00N 47°34' W 122°21'0 0.0
2018-Apr-23 02:31N 47°34' W 122°21'0 0.0
2018-Apr-23 02:00N 47°34' W 122°21'0 0.0
2018-Apr-23 01:30N 47°34' W 122°21'0 0.0
2018-Apr-23 01:00N 47°34' W 122°21'0 0.0
2018-Apr-23 00:30N 47°34' W 122°21'0 0.0
2018-Apr-23 00:00N 47°34' W 122°21'0 0.0
2018-Apr-22 23:30N 47°34' W 122°21'0 0.0
2018-Apr-22 23:00N 47°34' W 122°21'0 0.0
2018-Apr-22 22:30N 47°34' W 122°21'0 0.0
2018-Apr-22 22:00N 47°34' W 122°21'0 0.0
2018-Apr-22 21:30N 47°34' W 122°21'0 0.0
2018-Apr-22 21:00N 47°34' W 122°21'0 0.0
2018-Apr-22 20:30N 47°34' W 122°21'0 0.0
2018-Apr-22 20:00N 47°34' W 122°21'0 0.0
2018-Apr-22 19:30N 47°34' W 122°21'0 0.0
2018-Apr-22 18:59N 47°34' W 122°21'0 0.0
2018-Apr-22 18:30N 47°34' W 122°21'0 0.0
2018-Apr-22 18:01N 47°34' W 122°21'0 0.0
2018-Apr-22 17:31N 47°34' W 122°21'0 0.0
2018-Apr-22 17:00N 47°34' W 122°21'0 0.0
2018-Apr-22 16:30N 47°34' W 122°21'0 0.0
2018-Apr-22 15:58N 47°34' W 122°21'0 0.0
2018-Apr-22 15:29N 47°34' W 122°21'0 0.0
2018-Apr-22 14:14N 47°34' W 122°21'0 0.0
2018-Apr-22 13:51N 47°34' W 122°21'0 0.0
2018-Apr-22 12:17N 47°34' W 122°21'0 0.0
2018-Apr-22 11:57N 47°34' W 122°21'0 0.0
2018-Apr-22 11:28N 47°34' W 122°21'0 0.0
2018-Apr-22 11:00N 47°34' W 122°21'0 0.0
2018-Apr-22 10:30N 47°34' W 122°21'0 0.0
2018-Apr-22 09:56N 47°34' W 122°21'0 0.0
2018-Apr-22 09:30N 47°34' W 122°21'0 0.0
2018-Apr-22 09:00N 47°34' W 122°21'0 0.0
2018-Apr-22 08:30N 47°34' W 122°21'0 0.0
2018-Apr-22 08:00N 47°34' W 122°21'0 0.0
2018-Apr-22 07:30N 47°34' W 122°21'0 0.0
2018-Apr-22 06:56N 47°34' W 122°21'0 0.0
2018-Apr-22 06:30N 47°34' W 122°21'0 0.0
2018-Apr-22 06:00N 47°34' W 122°21'0 0.0
2018-Apr-22 05:27N 47°34' W 122°21'0 0.0
2018-Apr-22 05:00N 47°34' W 122°21'0 0.0
2018-Apr-22 04:30N 47°34' W 122°21'0 0.0
2018-Apr-22 04:00N 47°34' W 122°21'0 0.0
2018-Apr-22 03:30N 47°34' W 122°21'0 0.0
2018-Apr-22 03:00N 47°34' W 122°21'0 0.0
2018-Apr-22 02:31N 47°34' W 122°21'0 0.0
2018-Apr-22 02:00N 47°34' W 122°21'0 0.0
2018-Apr-22 01:30N 47°34' W 122°21'0 0.0
2018-Apr-22 01:01N 47°34' W 122°21'0 0.0
2018-Apr-22 00:30N 47°34' W 122°21'0 0.0
2018-Apr-22 00:00N 47°34' W 122°21'0 0.0
2018-Apr-21 23:30N 47°34' W 122°21'0 0.0
2018-Apr-21 23:00N 47°34' W 122°21'0 0.0
2018-Apr-21 22:30N 47°34' W 122°21'0 0.0
2018-Apr-21 22:00N 47°34' W 122°21'0 0.0
2018-Apr-21 21:26N 47°34' W 122°21'0 0.0
2018-Apr-21 20:59N 47°34' W 122°21'0 0.0
2018-Apr-21 20:30N 47°34' W 122°21'0 0.0
2018-Apr-21 20:00N 47°34' W 122°21'0 0.0
2018-Apr-21 19:29N 47°34' W 122°21'0 0.0
2018-Apr-21 19:00N 47°34' W 122°21'0 0.0
2018-Apr-21 18:30N 47°34' W 122°21'0 0.0
2018-Apr-21 18:01N 47°34' W 122°21'0 0.0
2018-Apr-21 17:31N 47°34' W 122°21'0 0.0
2018-Apr-21 17:01N 47°34' W 122°21'0 0.0
2018-Apr-21 16:30N 47°34' W 122°21'0 0.0
2018-Apr-21 16:00N 47°34' W 122°21'0 0.0
2018-Apr-21 15:29N 47°34' W 122°21'0 0.0
2018-Apr-21 15:01N 47°34' W 122°21'0 0.0
2018-Apr-21 14:27N 47°34' W 122°21'0 0.1
2018-Apr-21 14:00N 47°34' W 122°21'0 0.0
2018-Apr-21 13:30N 47°34' W 122°21'0 0.0
2018-Apr-21 13:00N 47°34' W 122°21'0 0.0
2018-Apr-21 12:31N 47°34' W 122°21'0 0.0
2018-Apr-21 12:00N 47°34' W 122°21'0 0.0
2018-Apr-21 11:31N 47°34' W 122°21'0 0.0
2018-Apr-21 10:59N 47°34' W 122°21'0 0.0
2018-Apr-21 10:29N 47°34' W 122°21'0 0.0
2018-Apr-21 10:00N 47°34' W 122°21'0 0.0
2018-Apr-21 09:29N 47°34' W 122°21'0 0.0
2018-Apr-21 09:00N 47°34' W 122°21'0 0.0
2018-Apr-21 08:30N 47°34' W 122°21'0 0.0
2018-Apr-21 08:01N 47°34' W 122°21'0 0.0
2018-Apr-21 07:30N 47°34' W 122°21'0 0.0
2018-Apr-21 07:01N 47°34' W 122°21'0 0.0
2018-Apr-21 06:30N 47°34' W 122°21'0 0.0
2018-Apr-21 06:00N 47°34' W 122°21'0 0.0
2018-Apr-21 05:29N 47°34' W 122°21'0 0.0
2018-Apr-21 05:00N 47°34' W 122°21'0 0.0
2018-Apr-21 04:30N 47°34' W 122°21'1 1.9
2018-Apr-21 04:00N 47°35' W 122°22'4 7.9
2018-Apr-21 03:30N 47°38' W 122°26'2 3.9
2018-Apr-21 03:00N 47°40' W 122°24'2 4.0
2018-Apr-21 02:30N 47°39' W 122°21'3 6.1
2018-Apr-21 02:00N 47°39' W 122°17'4 1.9
2018-Apr-20 23:59N 47°43' W 122°16'3 6.3
2018-Apr-20 23:30N 47°39' W 122°16'3 5.2
2018-Apr-20 23:00N 47°39' W 122°19'2 4.6
2018-Apr-20 22:30N 47°40' W 122°23'1 2.4
2018-Apr-20 22:01N 47°40' W 122°24'2 4.6
2018-Apr-20 21:30N 47°39' W 122°27'4 7.5
2018-Apr-20 21:00N 47°35' W 122°27'4 7.9
2018-Apr-20 20:31N 47°31' W 122°29'5 9.0
2018-Apr-20 20:00N 47°27' W 122°31'4 8.8
2018-Apr-20 19:30N 47°22' W 122°32'610.4
2018-Apr-20 18:57N 47°17' W 122°33'510.5
2018-Apr-20 18:30N 47°12' W 122°36'5 7.2
2018-Apr-20 17:50N 47°08' W 122°39'0 0.0
2018-Apr-20 17:31N 47°08' W 122°39'0 0.0
2018-Apr-20 17:00N 47°08' W 122°39'0 0.1
2018-Apr-20 16:29N 47°08' W 122°39'0 0.0
2018-Apr-20 16:00N 47°08' W 122°39'0 0.0
2018-Apr-20 15:26N 47°08' W 122°39'1 0.7
2018-Apr-20 14:35N 47°09' W 122°38'0 0.0
2018-Apr-20 13:27N 47°09' W 122°38'0 0.0
2018-Apr-20 12:35N 47°09' W 122°38'0 0.1
2018-Apr-20 12:30N 47°09' W 122°38'0 0.0
2018-Apr-20 11:53N 47°09' W 122°38'0 0.0
2018-Apr-20 11:29N 47°09' W 122°38'0 0.0
2018-Apr-20 10:58N 47°09' W 122°38'0 0.0
2018-Apr-20 10:28N 47°09' W 122°38'0 0.0
2018-Apr-20 10:01N 47°09' W 122°38'0 0.0
2018-Apr-20 09:30N 47°09' W 122°38'0 0.0
2018-Apr-20 08:58N 47°09' W 122°38'0 0.0
2018-Apr-20 08:01N 47°09' W 122°38'0 0.3
2018-Apr-20 08:00N 47°09' W 122°38'0 0.1
2018-Apr-20 07:18N 47°09' W 122°38'0 0.1
2018-Apr-20 06:59N 47°09' W 122°38'3 5.3
2018-Apr-20 06:31N 47°11' W 122°37'4 7.4
2018-Apr-20 05:59N 47°14' W 122°35'3 6.6
2018-Apr-20 05:31N 47°17' W 122°33'4 7.9
2018-Apr-20 05:01N 47°21' W 122°33'4 8.2
2018-Apr-20 04:30N 47°25' W 122°32'4 8.0
2018-Apr-20 04:01N 47°29' W 122°30'5 9.8
2018-Apr-20 03:31N 47°34' W 122°28'5 9.9
2018-Apr-20 03:01N 47°39' W 122°27'2 4.4
2018-Apr-20 02:31N 47°40' W 122°24'3 5.3
2018-Apr-20 02:01N 47°39' W 122°20'5 1.9
2018-Apr-19 23:23N 47°43' W 122°16'2 5.9
2018-Apr-19 23:00N 47°40' W 122°15'3 5.5
2018-Apr-19 22:29N 47°39' W 122°18'2 3.3
2018-Apr-19 22:01N 47°39' W 122°20'2 3.9
2018-Apr-19 21:31N 47°40' W 122°23'1 2.0
2018-Apr-19 21:01N 47°40' W 122°24'1 1.9
2018-Apr-19 20:30N 47°41' W 122°26'3 6.6
2018-Apr-19 20:01N 47°37' W 122°27'4 7.5
2018-Apr-19 19:31N 47°34' W 122°27'4 8.0
2018-Apr-19 19:01N 47°30' W 122°29'4 8.7
2018-Apr-19 18:31N 47°26' W 122°31'4 8.4
2018-Apr-19 18:01N 47°22' W 122°32'5 9.7
2018-Apr-19 17:31N 47°17' W 122°33'510.1
2018-Apr-19 17:00N 47°12' W 122°36'5 7.4
2018-Apr-19 16:22N 47°08' W 122°39'0 0.2
2018-Apr-19 15:44N 47°08' W 122°39'0 0.0
2018-Apr-19 15:29N 47°08' W 122°39'0 0.0
2018-Apr-19 14:59N 47°08' W 122°39'0 0.0
2018-Apr-19 14:30N 47°08' W 122°39'0 0.1
2018-Apr-19 14:01N 47°08' W 122°39'1 1.0
2018-Apr-19 13:28N 47°09' W 122°38'0 0.1
2018-Apr-19 12:31N 47°09' W 122°38'0 0.0
2018-Apr-19 11:45N 47°09' W 122°38'0 0.0
2018-Apr-19 11:25N 47°09' W 122°38'0 0.0
2018-Apr-19 10:54N 47°09' W 122°38'0 0.0
2018-Apr-19 10:14N 47°09' W 122°38'0 0.0
2018-Apr-19 10:00N 47°09' W 122°38'0 0.0
2018-Apr-19 09:30N 47°09' W 122°38'0 0.0
2018-Apr-19 08:58N 47°09' W 122°38'0 0.0
2018-Apr-19 08:29N 47°09' W 122°38'1 1.7
2018-Apr-19 08:01N 47°09' W 122°39'4 7.7
2018-Apr-19 07:30N 47°13' W 122°35'3 6.5
2018-Apr-19 07:00N 47°16' W 122°34'3 5.1
2018-Apr-19 06:29N 47°18' W 122°33'3 6.9
2018-Apr-19 06:01N 47°22' W 122°32'4 7.7
2018-Apr-19 05:30N 47°25' W 122°32'4 7.3
2018-Apr-19 05:01N 47°29' W 122°30'4 8.0
2018-Apr-19 04:31N 47°32' W 122°27'4 7.2
2018-Apr-19 04:00N 47°36' W 122°26'4 8.4
2018-Apr-19 03:31N 47°40' W 122°26'1 3.0
2018-Apr-19 03:01N 47°40' W 122°24'3 5.9
2018-Apr-19 02:30N 47°39' W 122°20'3 6.7
2018-Apr-19 01:59N 47°40' W 122°15'5 4.6
2018-Apr-19 00:56N 47°45' W 122°16'3 2.7
2018-Apr-19 00:02N 47°43' W 122°16'1 6.3
2018-Apr-18 23:57N 47°42' W 122°15'2 5.4
2018-Apr-18 23:30N 47°40' W 122°15'3 5.0
2018-Apr-18 23:00N 47°39' W 122°19'2 3.6
2018-Apr-18 22:31N 47°39' W 122°21'2 3.5
2018-Apr-18 22:00N 47°40' W 122°24'1 2.3
2018-Apr-18 21:31N 47°41' W 122°25'3 5.6
2018-Apr-18 21:00N 47°38' W 122°27'4 7.2
2018-Apr-18 20:30N 47°35' W 122°26'3 6.5
2018-Apr-18 20:01N 47°32' W 122°28'4 8.3
2018-Apr-18 19:30N 47°28' W 122°31'4 8.1
2018-Apr-18 19:00N 47°24' W 122°32'5 9.3
2018-Apr-18 18:30N 47°19' W 122°33'510.3
2018-Apr-18 17:59N 47°14' W 122°35'4 8.0
2018-Apr-18 17:29N 47°11' W 122°37'3 5.1
2018-Apr-18 16:58N 47°08' W 122°39'0 0.0
2018-Apr-18 16:30N 47°08' W 122°39'0 0.0
2018-Apr-18 16:00N 47°08' W 122°39'0 0.0
2018-Apr-18 15:29N 47°08' W 122°39'0 0.1
2018-Apr-18 14:58N 47°08' W 122°39'0 0.0
2018-Apr-18 14:29N 47°08' W 122°39'0 0.0
2018-Apr-18 13:56N 47°08' W 122°39'1 1.3
2018-Apr-18 13:30N 47°09' W 122°38'0 0.1
2018-Apr-18 13:00N 47°09' W 122°38'0 0.1
2018-Apr-18 12:30N 47°09' W 122°38'0 0.0
2018-Apr-18 12:00N 47°09' W 122°38'0 0.0
2018-Apr-18 11:29N 47°09' W 122°38'0 0.0
2018-Apr-18 11:00N 47°09' W 122°38'0 0.0
2018-Apr-18 10:30N 47°09' W 122°38'0 0.0
2018-Apr-18 09:53N 47°09' W 122°38'0 0.0
2018-Apr-18 09:30N 47°09' W 122°38'3 5.3
2018-Apr-18 09:01N 47°11' W 122°37'4 7.9
2018-Apr-18 08:31N 47°15' W 122°35'3 6.8
2018-Apr-18 08:00N 47°18' W 122°33'3 6.2
2018-Apr-18 07:31N 47°21' W 122°33'4 7.3
2018-Apr-18 07:00N 47°25' W 122°32'4 7.3
2018-Apr-18 06:31N 47°28' W 122°31'3 6.8
2018-Apr-18 06:01N 47°31' W 122°29'4 7.0
2018-Apr-18 05:31N 47°35' W 122°28'4 7.3
2018-Apr-18 05:00N 47°38' W 122°27'3 5.2
2018-Apr-18 04:31N 47°41' W 122°25'2 3.4
2018-Apr-18 04:00N 47°40' W 122°23'3 5.8
2018-Apr-18 03:30N 47°39' W 122°18'7 1.6
2018-Apr-17 23:13N 47°45' W 122°15'1 2.9
2018-Apr-17 22:57N 47°45' W 122°16'3 6.2
2018-Apr-17 22:25N 47°42' W 122°15'3 5.8
2018-Apr-17 21:58N 47°39' W 122°16'2 4.7
2018-Apr-17 21:31N 47°39' W 122°19'2 3.3
2018-Apr-17 21:00N 47°39' W 122°21'2 3.5
2018-Apr-17 20:31N 47°40' W 122°24'1 2.9
2018-Apr-17 20:00N 47°41' W 122°26'4 7.1
2018-Apr-17 19:31N 47°37' W 122°26'4 7.9
2018-Apr-17 19:00N 47°33' W 122°27'5 9.4
2018-Apr-17 18:31N 47°29' W 122°30'5 9.0
2018-Apr-17 18:01N 47°25' W 122°32'5 9.4
2018-Apr-17 17:30N 47°20' W 122°33'611.2
2018-Apr-17 17:01N 47°14' W 122°35'5 8.8
2018-Apr-17 16:29N 47°10' W 122°38'2 5.0
2018-Apr-17 16:00N 47°08' W 122°39'0 0.0
2018-Apr-17 15:31N 47°08' W 122°39'0 0.0
2018-Apr-17 15:01N 47°08' W 122°39'0 0.1
2018-Apr-17 14:31N 47°08' W 122°39'0 0.0
2018-Apr-17 14:00N 47°08' W 122°39'1 1.0
2018-Apr-17 13:26N 47°09' W 122°38'0 0.0
2018-Apr-17 12:55N 47°09' W 122°38'0 0.0
2018-Apr-17 12:30N 47°09' W 122°38'0 0.0
2018-Apr-17 12:00N 47°09' W 122°38'0 0.0
2018-Apr-17 11:30N 47°09' W 122°38'0 0.0
2018-Apr-17 10:57N 47°09' W 122°38'0 0.0
2018-Apr-17 10:30N 47°09' W 122°38'2 4.3
2018-Apr-17 10:00N 47°11' W 122°38'4 7.4
2018-Apr-17 09:31N 47°14' W 122°35'5 8.9
2018-Apr-17 09:00N 47°18' W 122°33'4 7.3
2018-Apr-17 08:30N 47°22' W 122°32'3 7.0
2018-Apr-17 08:01N 47°25' W 122°32'3 6.9
2018-Apr-17 07:31N 47°29' W 122°30'3 6.5
2018-Apr-17 07:01N 47°32' W 122°29'4 7.7
2018-Apr-17 06:30N 47°35' W 122°28'4 7.4
2018-Apr-17 06:01N 47°39' W 122°27'2 4.6
2018-Apr-17 05:31N 47°40' W 122°24'3 5.2
2018-Apr-17 05:01N 47°39' W 122°20'4 6.5
2018-Apr-17 04:24N 47°40' W 122°15'3 1.5
2018-Apr-17 02:30N 47°43' W 122°16'4 6.6
2018-Apr-17 01:57N 47°39' W 122°16'2 5.6
2018-Apr-17 01:31N 47°39' W 122°20'2 4.4
2018-Apr-17 01:00N 47°40' W 122°23'1 1.1
2018-Apr-17 00:30N 47°40' W 122°24'0 0.0
2018-Apr-17 00:00N 47°40' W 122°24'0 0.0
2018-Apr-16 23:30N 47°40' W 122°24'0 0.0
2018-Apr-16 23:00N 47°40' W 122°24'0 0.3
2018-Apr-16 22:29N 47°40' W 122°24'1 2.2
2018-Apr-16 22:01N 47°41' W 122°25'2 4.8
2018-Apr-16 21:30N 47°39' W 122°27'3 6.8
2018-Apr-16 21:01N 47°35' W 122°26'3 6.7
2018-Apr-16 20:31N 47°32' W 122°28'4 8.4
2018-Apr-16 20:00N 47°28' W 122°31'4 8.3
2018-Apr-16 19:30N 47°24' W 122°32'4 8.8
2018-Apr-16 19:00N 47°20' W 122°33'5 9.4
2018-Apr-16 18:30N 47°15' W 122°34'5 8.7
2018-Apr-16 17:57N 47°11' W 122°37'3 7.0
2018-Apr-16 17:31N 47°08' W 122°39'0 0.0
2018-Apr-16 16:59N 47°08' W 122°39'0 0.0
2018-Apr-16 16:28N 47°08' W 122°39'0 0.1
2018-Apr-16 15:56N 47°08' W 122°39'0 0.0
2018-Apr-16 15:30N 47°08' W 122°39'0 0.0
2018-Apr-16 14:59N 47°08' W 122°39'2 4.1
2018-Apr-16 14:30N 47°10' W 122°38'3 6.7
2018-Apr-16 14:00N 47°13' W 122°35'3 7.1
2018-Apr-16 13:30N 47°16' W 122°33'4 7.5
2018-Apr-16 13:00N 47°20' W 122°33'4 7.5
2018-Apr-16 12:30N 47°23' W 122°32'4 7.5
2018-Apr-16 12:00N 47°27' W 122°31'4 7.7
2018-Apr-16 11:31N 47°31' W 122°29'4 8.5
2018-Apr-16 11:00N 47°35' W 122°26'3 5.8
2018-Apr-16 10:31N 47°35' W 122°22'2 4.6
2018-Apr-16 10:00N 47°33' W 122°20'0 0.5
2018-Apr-16 09:30N 47°33' W 122°20'1 2.1
2018-Apr-16 08:58N 47°34' W 122°21'0 0.1
2018-Apr-16 08:29N 47°34' W 122°21'0 0.7
2018-Apr-16 08:00N 47°34' W 122°21'0 0.2
2018-Apr-16 06:32N 47°34' W 122°21'0 0.0
2018-Apr-16 06:29N 47°34' W 122°21'1 1.2
2018-Apr-16 06:01N 47°34' W 122°21'0 0.6
2018-Apr-16 05:30N 47°34' W 122°21'0 0.3
2018-Apr-16 05:00N 47°34' W 122°21'2 2.9
2018-Apr-16 04:28N 47°35' W 122°21'0 0.0
2018-Apr-16 04:00N 47°35' W 122°21'1 1.7
2018-Apr-16 03:26N 47°34' W 122°21'  
Track history (hours):
 
Tides and Currents Weather Stations Pressure Air Temp Water Temp Dewpoint Dewpoint Depression Visibility Wind Speed Wind Dir Waves Ship Positions

Island Chief

Owner: Island Tug and Barge, SEATTLE, WA. More information available from US FCC via Universal Licensing System and Coast Guard Vessel Documentation Center.

Last reported at 2018-Apr-26 03:01 UTC. Time now 2018-Apr-26 03:45 UTC.
Position N 47°45' W 122°16'.

Length 21 m; draft 3 m.

Type: Towing. MMSI: 365798606.

Date/timePositionNaut miles runAvg speedWind from/ knotsBaromVisibWave heightAir tempDewpointWater temp
2018-Apr-26 03:01N 47°45' W 122°16'2 6.5
2018-Apr-26 02:43N 47°43' W 122°16'2 7.1
2018-Apr-26 02:28N 47°41' W 122°15'3 6.2
2018-Apr-26 02:00N 47°39' W 122°17'2 4.1
2018-Apr-26 01:30N 47°39' W 122°20'2 4.6
2018-Apr-26 01:00N 47°40' W 122°23'1 2.1
2018-Apr-26 00:30N 47°40' W 122°24'2 4.2
2018-Apr-26 00:00N 47°39' W 122°27'4 7.2
2018-Apr-25 23:30N 47°35' W 122°26'3 6.7
2018-Apr-25 23:00N 47°32' W 122°28'4 7.1
2018-Apr-25 22:30N 47°29' W 122°30'3 6.8
2018-Apr-25 22:00N 47°26' W 122°32'3 6.7
2018-Apr-25 21:30N 47°22' W 122°32'3 6.9
2018-Apr-25 21:00N 47°19' W 122°33'3 5.7
2018-Apr-25 20:30N 47°16' W 122°34'5 6.2
2018-Apr-25 19:43N 47°12' W 122°36'2 7.5
2018-Apr-25 19:29N 47°10' W 122°38'2 4.9
2018-Apr-25 19:00N 47°08' W 122°39'0 0.0
2018-Apr-25 18:30N 47°08' W 122°39'0 0.0
2018-Apr-25 17:59N 47°08' W 122°39'0 0.0
2018-Apr-25 17:28N 47°08' W 122°39'0 0.1
2018-Apr-25 17:00N 47°08' W 122°39'0 0.0
2018-Apr-25 16:29N 47°08' W 122°39'1 1.0
2018-Apr-25 15:54N 47°09' W 122°38'0 0.0
2018-Apr-25 15:29N 47°09' W 122°38'0 0.0
2018-Apr-25 14:51N 47°09' W 122°38'0 0.0
2018-Apr-25 14:21N 47°09' W 122°38'1 3.9
2018-Apr-25 14:00N 47°10' W 122°38'4 7.2
2018-Apr-25 13:30N 47°13' W 122°36'3 6.1
2018-Apr-25 13:00N 47°16' W 122°34'3 5.5
2018-Apr-25 12:30N 47°19' W 122°33'3 7.0
2018-Apr-25 12:00N 47°22' W 122°32'4 8.3
2018-Apr-25 11:30N 47°26' W 122°31'4 8.4
2018-Apr-25 11:00N 47°30' W 122°29'4 8.8
2018-Apr-25 10:30N 47°34' W 122°28'5 9.0
2018-Apr-25 10:00N 47°39' W 122°27'2 4.9
2018-Apr-25 09:31N 47°40' W 122°24'1 2.9
2018-Apr-25 09:00N 47°39' W 122°22'2 3.6
2018-Apr-25 08:30N 47°39' W 122°19'3 5.6
2018-Apr-25 08:00N 47°40' W 122°15'3 0.5
2018-Apr-25 02:46N 47°43' W 122°16'2 6.4
2018-Apr-25 02:30N 47°41' W 122°15'3 5.7
2018-Apr-25 02:00N 47°39' W 122°17'2 3.9
2018-Apr-25 01:31N 47°39' W 122°20'2 4.3
2018-Apr-25 01:01N 47°40' W 122°23'1 1.2
2018-Apr-25 00:31N 47°40' W 122°24'0 0.0
2018-Apr-25 00:00N 47°40' W 122°24'0 0.3
2018-Apr-24 23:30N 47°40' W 122°24'1 3.0
2018-Apr-24 23:01N 47°40' W 122°26'3 5.1
2018-Apr-24 22:30N 47°38' W 122°26'2 4.6
2018-Apr-24 22:00N 47°36' W 122°23'2 4.0
2018-Apr-24 21:29N 47°34' W 122°21'0 0.0
2018-Apr-24 20:59N 47°34' W 122°21'0 0.0
2018-Apr-24 20:30N 47°34' W 122°21'0 0.0
2018-Apr-24 20:00N 47°34' W 122°21'0 0.0
2018-Apr-24 19:30N 47°34' W 122°21'0 0.0
2018-Apr-24 19:00N 47°34' W 122°21'0 0.0
2018-Apr-24 18:30N 47°34' W 122°21'0 0.0
2018-Apr-24 18:00N 47°34' W 122°21'0 0.0
2018-Apr-24 17:30N 47°34' W 122°21'0 0.1
2018-Apr-24 17:00N 47°34' W 122°21'0 0.1
2018-Apr-24 16:30N 47°34' W 122°21'0 0.0
2018-Apr-24 16:00N 47°34' W 122°21'0 0.0
2018-Apr-24 15:30N 47°34' W 122°21'0 0.0
2018-Apr-24 15:00N 47°34' W 122°21'0 0.0
2018-Apr-24 14:29N 47°34' W 122°21'0 0.0
2018-Apr-24 14:00N 47°34' W 122°21'0 0.0
2018-Apr-24 13:30N 47°34' W 122°21'0 0.0
2018-Apr-24 13:01N 47°34' W 122°21'0 0.0
2018-Apr-24 12:30N 47°34' W 122°21'0 0.1
2018-Apr-24 12:00N 47°34' W 122°21'0 0.1
2018-Apr-24 11:31N 47°34' W 122°21'0 0.1
2018-Apr-24 11:00N 47°34' W 122°21'0 0.1
2018-Apr-24 10:30N 47°34' W 122°21'0 0.0
2018-Apr-24 10:00N 47°34' W 122°21'0 0.0
2018-Apr-24 09:30N 47°34' W 122°21'0 0.0
2018-Apr-24 09:00N 47°34' W 122°21'0 0.1
2018-Apr-24 08:30N 47°34' W 122°21'0 0.1
2018-Apr-24 08:00N 47°34' W 122°21'0 0.6
2018-Apr-24 07:30N 47°35' W 122°22'2 4.3
2018-Apr-24 07:00N 47°36' W 122°24'4 7.9
2018-Apr-24 06:30N 47°40' W 122°26'2 3.6
2018-Apr-24 06:01N 47°40' W 122°24'2 3.3
2018-Apr-24 05:31N 47°39' W 122°22'2 4.4
2018-Apr-24 05:00N 47°39' W 122°18'5 2.1
2018-Apr-24 02:47N 47°43' W 122°16'2 6.7
2018-Apr-24 02:30N 47°41' W 122°15'3 5.9
2018-Apr-24 02:00N 47°39' W 122°17'2 4.2
2018-Apr-24 01:30N 47°39' W 122°20'2 4.2
2018-Apr-24 01:00N 47°40' W 122°23'1 1.3
2018-Apr-24 00:30N 47°40' W 122°24'0 0.0
2018-Apr-24 00:00N 47°40' W 122°24'0 0.0
2018-Apr-23 23:31N 47°40' W 122°24'0 0.4
2018-Apr-23 23:01N 47°40' W 122°24'1 1.6
2018-Apr-23 22:30N 47°40' W 122°25'2 4.4
2018-Apr-23 22:01N 47°39' W 122°27'3 6.4
2018-Apr-23 21:31N 47°36' W 122°27'3 5.9
2018-Apr-23 21:01N 47°33' W 122°28'3 6.7
2018-Apr-23 20:30N 47°30' W 122°30'3 6.7
2018-Apr-23 20:01N 47°26' W 122°31'3 6.9
2018-Apr-23 19:30N 47°23' W 122°32'4 7.2
2018-Apr-23 19:00N 47°19' W 122°33'3 6.3
2018-Apr-23 18:29N 47°16' W 122°33'3 6.0
2018-Apr-23 18:00N 47°14' W 122°35'4 6.9
2018-Apr-23 17:30N 47°11' W 122°38'3 5.3
2018-Apr-23 17:00N 47°08' W 122°39'0 0.0
2018-Apr-23 16:28N 47°08' W 122°39'0 0.0
2018-Apr-23 15:58N 47°08' W 122°39'0 0.0
2018-Apr-23 15:30N 47°08' W 122°39'0 0.0
2018-Apr-23 14:59N 47°08' W 122°39'1 2.3
2018-Apr-23 14:30N 47°09' W 122°39'4 7.8
2018-Apr-23 14:00N 47°13' W 122°36'4 7.9
2018-Apr-23 13:30N 47°16' W 122°33'3 6.8
2018-Apr-23 13:00N 47°20' W 122°34'4 7.7
2018-Apr-23 12:31N 47°23' W 122°32'4 7.9
2018-Apr-23 12:00N 47°27' W 122°31'4 8.5
2018-Apr-23 11:30N 47°31' W 122°29'5 9.1
2018-Apr-23 11:00N 47°35' W 122°26'2 4.5
2018-Apr-23 10:30N 47°35' W 122°22'1 1.6
2018-Apr-23 10:00N 47°34' W 122°21'0 0.9
2018-Apr-23 09:30N 47°34' W 122°21'0 0.5
2018-Apr-23 08:59N 47°34' W 122°21'1 1.1
2018-Apr-23 08:27N 47°34' W 122°21'0 0.0
2018-Apr-23 07:56N 47°34' W 122°21'0 0.0
2018-Apr-23 07:30N 47°34' W 122°21'0 0.0
2018-Apr-23 07:00N 47°34' W 122°21'0 0.0
2018-Apr-23 06:30N 47°34' W 122°21'0 0.0
2018-Apr-23 05:58N 47°34' W 122°21'0 0.0
2018-Apr-23 05:30N 47°34' W 122°21'0 0.0
2018-Apr-23 05:00N 47°34' W 122°21'0 0.0
2018-Apr-23 04:30N 47°34' W 122°21'0 0.0
2018-Apr-23 04:00N 47°34' W 122°21'0 0.0
2018-Apr-23 03:30N 47°34' W 122°21'0 0.0
2018-Apr-23 03:00N 47°34' W 122°21'0 0.0
2018-Apr-23 02:31N 47°34' W 122°21'0 0.0
2018-Apr-23 02:00N 47°34' W 122°21'0 0.0
2018-Apr-23 01:30N 47°34' W 122°21'0 0.0
2018-Apr-23 01:00N 47°34' W 122°21'0 0.0
2018-Apr-23 00:30N 47°34' W 122°21'0 0.0
2018-Apr-23 00:00N 47°34' W 122°21'0 0.0
2018-Apr-22 23:30N 47°34' W 122°21'0 0.0
2018-Apr-22 23:00N 47°34' W 122°21'0 0.0
2018-Apr-22 22:30N 47°34' W 122°21'0 0.0
2018-Apr-22 22:00N 47°34' W 122°21'0 0.0
2018-Apr-22 21:30N 47°34' W 122°21'0 0.0
2018-Apr-22 21:00N 47°34' W 122°21'0 0.0
2018-Apr-22 20:30N 47°34' W 122°21'0 0.0
2018-Apr-22 20:00N 47°34' W 122°21'0 0.0
2018-Apr-22 19:30N 47°34' W 122°21'0 0.0
2018-Apr-22 18:59N 47°34' W 122°21'0 0.0
2018-Apr-22 18:30N 47°34' W 122°21'0 0.0
2018-Apr-22 18:01N 47°34' W 122°21'0 0.0
2018-Apr-22 17:31N 47°34' W 122°21'0 0.0
2018-Apr-22 17:00N 47°34' W 122°21'0 0.0
2018-Apr-22 16:30N 47°34' W 122°21'0 0.0
2018-Apr-22 15:58N 47°34' W 122°21'0 0.0
2018-Apr-22 15:29N 47°34' W 122°21'0 0.0
2018-Apr-22 14:14N 47°34' W 122°21'0 0.0
2018-Apr-22 13:51N 47°34' W 122°21'0 0.0
2018-Apr-22 12:17N 47°34' W 122°21'0 0.0
2018-Apr-22 11:57N 47°34' W 122°21'0 0.0
2018-Apr-22 11:28N 47°34' W 122°21'0 0.0
2018-Apr-22 11:00N 47°34' W 122°21'0 0.0
2018-Apr-22 10:30N 47°34' W 122°21'0 0.0
2018-Apr-22 09:56N 47°34' W 122°21'0 0.0
2018-Apr-22 09:30N 47°34' W 122°21'0 0.0
2018-Apr-22 09:00N 47°34' W 122°21'0 0.0
2018-Apr-22 08:30N 47°34' W 122°21'0 0.0
2018-Apr-22 08:00N 47°34' W 122°21'0 0.0
2018-Apr-22 07:30N 47°34' W 122°21'0 0.0
2018-Apr-22 06:56N 47°34' W 122°21'0 0.0
2018-Apr-22 06:30N 47°34' W 122°21'0 0.0
2018-Apr-22 06:00N 47°34' W 122°21'0 0.0
2018-Apr-22 05:27N 47°34' W 122°21'0 0.0
2018-Apr-22 05:00N 47°34' W 122°21'0 0.0
2018-Apr-22 04:30N 47°34' W 122°21'0 0.0
2018-Apr-22 04:00N 47°34' W 122°21'0 0.0
2018-Apr-22 03:30N 47°34' W 122°21'0 0.0
2018-Apr-22 03:00N 47°34' W 122°21'0 0.0
2018-Apr-22 02:31N 47°34' W 122°21'0 0.0
2018-Apr-22 02:00N 47°34' W 122°21'0 0.0
2018-Apr-22 01:30N 47°34' W 122°21'0 0.0
2018-Apr-22 01:01N 47°34' W 122°21'0 0.0
2018-Apr-22 00:30N 47°34' W 122°21'0 0.0
2018-Apr-22 00:00N 47°34' W 122°21'0 0.0
2018-Apr-21 23:30N 47°34' W 122°21'0 0.0
2018-Apr-21 23:00N 47°34' W 122°21'0 0.0
2018-Apr-21 22:30N 47°34' W 122°21'0 0.0
2018-Apr-21 22:00N 47°34' W 122°21'0 0.0
2018-Apr-21 21:26N 47°34' W 122°21'0 0.0
2018-Apr-21 20:59N 47°34' W 122°21'0 0.0
2018-Apr-21 20:30N 47°34' W 122°21'0 0.0
2018-Apr-21 20:00N 47°34' W 122°21'0 0.0
2018-Apr-21 19:29N 47°34' W 122°21'0 0.0
2018-Apr-21 19:00N 47°34' W 122°21'0 0.0
2018-Apr-21 18:30N 47°34' W 122°21'0 0.0
2018-Apr-21 18:01N 47°34' W 122°21'0 0.0
2018-Apr-21 17:31N 47°34' W 122°21'0 0.0
2018-Apr-21 17:01N 47°34' W 122°21'0 0.0
2018-Apr-21 16:30N 47°34' W 122°21'0 0.0
2018-Apr-21 16:00N 47°34' W 122°21'0 0.0
2018-Apr-21 15:29N 47°34' W 122°21'0 0.0
2018-Apr-21 15:01N 47°34' W 122°21'0 0.0
2018-Apr-21 14:27N 47°34' W 122°21'0 0.1
2018-Apr-21 14:00N 47°34' W 122°21'0 0.0
2018-Apr-21 13:30N 47°34' W 122°21'0 0.0
2018-Apr-21 13:00N 47°34' W 122°21'0 0.0
2018-Apr-21 12:31N 47°34' W 122°21'0 0.0
2018-Apr-21 12:00N 47°34' W 122°21'0 0.0
2018-Apr-21 11:31N 47°34' W 122°21'0 0.0
2018-Apr-21 10:59N 47°34' W 122°21'0 0.0
2018-Apr-21 10:29N 47°34' W 122°21'0 0.0
2018-Apr-21 10:00N 47°34' W 122°21'0 0.0
2018-Apr-21 09:29N 47°34' W 122°21'0 0.0
2018-Apr-21 09:00N 47°34' W 122°21'0 0.0
2018-Apr-21 08:30N 47°34' W 122°21'0 0.0
2018-Apr-21 08:01N 47°34' W 122°21'0 0.0
2018-Apr-21 07:30N 47°34' W 122°21'0 0.0
2018-Apr-21 07:01N 47°34' W 122°21'0 0.0
2018-Apr-21 06:30N 47°34' W 122°21'0 0.0
2018-Apr-21 06:00N 47°34' W 122°21'0 0.0
2018-Apr-21 05:29N 47°34' W 122°21'0 0.0
2018-Apr-21 05:00N 47°34' W 122°21'0 0.0
2018-Apr-21 04:30N 47°34' W 122°21'1 1.9
2018-Apr-21 04:00N 47°35' W 122°22'4 7.9
2018-Apr-21 03:30N 47°38' W 122°26'2 3.9
2018-Apr-21 03:00N 47°40' W 122°24'2 4.0
2018-Apr-21 02:30N 47°39' W 122°21'3 6.1
2018-Apr-21 02:00N 47°39' W 122°17'4 1.9
2018-Apr-20 23:59N 47°43' W 122°16'3 6.3
2018-Apr-20 23:30N 47°39' W 122°16'3 5.2
2018-Apr-20 23:00N 47°39' W 122°19'2 4.6
2018-Apr-20 22:30N 47°40' W 122°23'1 2.4
2018-Apr-20 22:01N 47°40' W 122°24'2 4.6
2018-Apr-20 21:30N 47°39' W 122°27'4 7.5
2018-Apr-20 21:00N 47°35' W 122°27'4 7.9
2018-Apr-20 20:31N 47°31' W 122°29'5 9.0
2018-Apr-20 20:00N 47°27' W 122°31'4 8.8
2018-Apr-20 19:30N 47°22' W 122°32'610.4
2018-Apr-20 18:57N 47°17' W 122°33'510.5
2018-Apr-20 18:30N 47°12' W 122°36'5 7.2
2018-Apr-20 17:50N 47°08' W 122°39'0 0.0
2018-Apr-20 17:31N 47°08' W 122°39'0 0.0
2018-Apr-20 17:00N 47°08' W 122°39'0 0.1
2018-Apr-20 16:29N 47°08' W 122°39'0 0.0
2018-Apr-20 16:00N 47°08' W 122°39'0 0.0
2018-Apr-20 15:26N 47°08' W 122°39'1 0.7
2018-Apr-20 14:35N 47°09' W 122°38'0 0.0
2018-Apr-20 13:27N 47°09' W 122°38'0 0.0
2018-Apr-20 12:35N 47°09' W 122°38'0 0.1
2018-Apr-20 12:30N 47°09' W 122°38'0 0.0
2018-Apr-20 11:53N 47°09' W 122°38'0 0.0
2018-Apr-20 11:29N 47°09' W 122°38'0 0.0
2018-Apr-20 10:58N 47°09' W 122°38'0 0.0
2018-Apr-20 10:28N 47°09' W 122°38'0 0.0
2018-Apr-20 10:01N 47°09' W 122°38'0 0.0
2018-Apr-20 09:30N 47°09' W 122°38'0 0.0
2018-Apr-20 08:58N 47°09' W 122°38'0 0.0
2018-Apr-20 08:01N 47°09' W 122°38'0 0.3
2018-Apr-20 08:00N 47°09' W 122°38'0 0.1
2018-Apr-20 07:18N 47°09' W 122°38'0 0.1
2018-Apr-20 06:59N 47°09' W 122°38'3 5.3
2018-Apr-20 06:31N 47°11' W 122°37'4 7.4
2018-Apr-20 05:59N 47°14' W 122°35'3 6.6
2018-Apr-20 05:31N 47°17' W 122°33'4 7.9
2018-Apr-20 05:01N 47°21' W 122°33'4 8.2
2018-Apr-20 04:30N 47°25' W 122°32'4 8.0
2018-Apr-20 04:01N 47°29' W 122°30'5 9.8
2018-Apr-20 03:31N 47°34' W 122°28'5 9.9
2018-Apr-20 03:01N 47°39' W 122°27'2 4.4
2018-Apr-20 02:31N 47°40' W 122°24'3 5.3
2018-Apr-20 02:01N 47°39' W 122°20'5 1.9
2018-Apr-19 23:23N 47°43' W 122°16'2 5.9
2018-Apr-19 23:00N 47°40' W 122°15'3 5.5
2018-Apr-19 22:29N 47°39' W 122°18'2 3.3
2018-Apr-19 22:01N 47°39' W 122°20'2 3.9
2018-Apr-19 21:31N 47°40' W 122°23'1 2.0
2018-Apr-19 21:01N 47°40' W 122°24'1 1.9
2018-Apr-19 20:30N 47°41' W 122°26'3 6.6
2018-Apr-19 20:01N 47°37' W 122°27'4 7.5
2018-Apr-19 19:31N 47°34' W 122°27'4 8.0
2018-Apr-19 19:01N 47°30' W 122°29'4 8.7
2018-Apr-19 18:31N 47°26' W 122°31'4 8.4
2018-Apr-19 18:01N 47°22' W 122°32'5 9.7
2018-Apr-19 17:31N 47°17' W 122°33'510.1
2018-Apr-19 17:00N 47°12' W 122°36'5 7.4
2018-Apr-19 16:22N 47°08' W 122°39'0 0.2
2018-Apr-19 15:44N 47°08' W 122°39'0 0.0
2018-Apr-19 15:29N 47°08' W 122°39'0 0.0
2018-Apr-19 14:59N 47°08' W 122°39'0 0.0
2018-Apr-19 14:30N 47°08' W 122°39'0 0.1
2018-Apr-19 14:01N 47°08' W 122°39'1 1.0
2018-Apr-19 13:28N 47°09' W 122°38'0 0.1
2018-Apr-19 12:31N 47°09' W 122°38'0 0.0
2018-Apr-19 11:45N 47°09' W 122°38'0 0.0
2018-Apr-19 11:25N 47°09' W 122°38'0 0.0
2018-Apr-19 10:54N 47°09' W 122°38'0 0.0
2018-Apr-19 10:14N 47°09' W 122°38'0 0.0
2018-Apr-19 10:00N 47°09' W 122°38'0 0.0
2018-Apr-19 09:30N 47°09' W 122°38'0 0.0
2018-Apr-19 08:58N 47°09' W 122°38'0 0.0
2018-Apr-19 08:29N 47°09' W 122°38'1 1.7
2018-Apr-19 08:01N 47°09' W 122°39'4 7.7
2018-Apr-19 07:30N 47°13' W 122°35'3 6.5
2018-Apr-19 07:00N 47°16' W 122°34'3 5.1
2018-Apr-19 06:29N 47°18' W 122°33'3 6.9
2018-Apr-19 06:01N 47°22' W 122°32'4 7.7
2018-Apr-19 05:30N 47°25' W 122°32'4 7.3
2018-Apr-19 05:01N 47°29' W 122°30'4 8.0
2018-Apr-19 04:31N 47°32' W 122°27'4 7.2
2018-Apr-19 04:00N 47°36' W 122°26'4 8.4
2018-Apr-19 03:31N 47°40' W 122°26'1 3.0
2018-Apr-19 03:01N 47°40' W 122°24'3 5.9
2018-Apr-19 02:30N 47°39' W 122°20'3 6.7
2018-Apr-19 01:59N 47°40' W 122°15'5 4.6
2018-Apr-19 00:56N 47°45' W 122°16'3 2.7
2018-Apr-19 00:02N 47°43' W 122°16'1 6.3
2018-Apr-18 23:57N 47°42' W 122°15'2 5.4
2018-Apr-18 23:30N 47°40' W 122°15'3 5.0
2018-Apr-18 23:00N 47°39' W 122°19'2 3.6
2018-Apr-18 22:31N 47°39' W 122°21'2 3.5
2018-Apr-18 22:00N 47°40' W 122°24'1 2.3
2018-Apr-18 21:31N 47°41' W 122°25'3 5.6
2018-Apr-18 21:00N 47°38' W 122°27'4 7.2
2018-Apr-18 20:30N 47°35' W 122°26'3 6.5
2018-Apr-18 20:01N 47°32' W 122°28'4 8.3
2018-Apr-18 19:30N 47°28' W 122°31'4 8.1
2018-Apr-18 19:00N 47°24' W 122°32'5 9.3
2018-Apr-18 18:30N 47°19' W 122°33'510.3
2018-Apr-18 17:59N 47°14' W 122°35'4 8.0
2018-Apr-18 17:29N 47°11' W 122°37'3 5.1
2018-Apr-18 16:58N 47°08' W 122°39'0 0.0
2018-Apr-18 16:30N 47°08' W 122°39'0 0.0
2018-Apr-18 16:00N 47°08' W 122°39'0 0.0
2018-Apr-18 15:29N 47°08' W 122°39'0 0.1
2018-Apr-18 14:58N 47°08' W 122°39'0 0.0
2018-Apr-18 14:29N 47°08' W 122°39'0 0.0
2018-Apr-18 13:56N 47°08' W 122°39'1 1.3
2018-Apr-18 13:30N 47°09' W 122°38'0 0.1
2018-Apr-18 13:00N 47°09' W 122°38'0 0.1
2018-Apr-18 12:30N 47°09' W 122°38'0 0.0
2018-Apr-18 12:00N 47°09' W 122°38'0 0.0
2018-Apr-18 11:29N 47°09' W 122°38'0 0.0
2018-Apr-18 11:00N 47°09' W 122°38'0 0.0
2018-Apr-18 10:30N 47°09' W 122°38'0 0.0
2018-Apr-18 09:53N 47°09' W 122°38'0 0.0
2018-Apr-18 09:30N 47°09' W 122°38'3 5.3
2018-Apr-18 09:01N 47°11' W 122°37'4 7.9
2018-Apr-18 08:31N 47°15' W 122°35'3 6.8
2018-Apr-18 08:00N 47°18' W 122°33'3 6.2
2018-Apr-18 07:31N 47°21' W 122°33'4 7.3
2018-Apr-18 07:00N 47°25' W 122°32'4 7.3
2018-Apr-18 06:31N 47°28' W 122°31'3 6.8
2018-Apr-18 06:01N 47°31' W 122°29'4 7.0
2018-Apr-18 05:31N 47°35' W 122°28'4 7.3
2018-Apr-18 05:00N 47°38' W 122°27'3 5.2
2018-Apr-18 04:31N 47°41' W 122°25'2 3.4
2018-Apr-18 04:00N 47°40' W 122°23'3 5.8
2018-Apr-18 03:30N 47°39' W 122°18'7 1.6
2018-Apr-17 23:13N 47°45' W 122°15'1 2.9
2018-Apr-17 22:57N 47°45' W 122°16'3 6.2
2018-Apr-17 22:25N 47°42' W 122°15'3 5.8
2018-Apr-17 21:58N 47°39' W 122°16'2 4.7
2018-Apr-17 21:31N 47°39' W 122°19'2 3.3
2018-Apr-17 21:00N 47°39' W 122°21'2 3.5
2018-Apr-17 20:31N 47°40' W 122°24'1 2.9
2018-Apr-17 20:00N 47°41' W 122°26'4 7.1
2018-Apr-17 19:31N 47°37' W 122°26'4 7.9
2018-Apr-17 19:00N 47°33' W 122°27'5 9.4
2018-Apr-17 18:31N 47°29' W 122°30'5 9.0
2018-Apr-17 18:01N 47°25' W 122°32'5 9.4
2018-Apr-17 17:30N 47°20' W 122°33'611.2
2018-Apr-17 17:01N 47°14' W 122°35'5 8.8
2018-Apr-17 16:29N 47°10' W 122°38'2 5.0
2018-Apr-17 16:00N 47°08' W 122°39'0 0.0
2018-Apr-17 15:31N 47°08' W 122°39'0 0.0
2018-Apr-17 15:01N 47°08' W 122°39'0 0.1
2018-Apr-17 14:31N 47°08' W 122°39'0 0.0
2018-Apr-17 14:00N 47°08' W 122°39'1 1.0
2018-Apr-17 13:26N 47°09' W 122°38'0 0.0
2018-Apr-17 12:55N 47°09' W 122°38'0 0.0
2018-Apr-17 12:30N 47°09' W 122°38'0 0.0
2018-Apr-17 12:00N 47°09' W 122°38'0 0.0
2018-Apr-17 11:30N 47°09' W 122°38'0 0.0
2018-Apr-17 10:57N 47°09' W 122°38'0 0.0
2018-Apr-17 10:30N 47°09' W 122°38'2 4.3
2018-Apr-17 10:00N 47°11' W 122°38'4 7.4
2018-Apr-17 09:31N 47°14' W 122°35'5 8.9
2018-Apr-17 09:00N 47°18' W 122°33'4 7.3
2018-Apr-17 08:30N 47°22' W 122°32'3 7.0
2018-Apr-17 08:01N 47°25' W 122°32'3 6.9
2018-Apr-17 07:31N 47°29' W 122°30'3 6.5
2018-Apr-17 07:01N 47°32' W 122°29'4 7.7
2018-Apr-17 06:30N 47°35' W 122°28'4 7.4
2018-Apr-17 06:01N 47°39' W 122°27'2 4.6
2018-Apr-17 05:31N 47°40' W 122°24'3 5.2
2018-Apr-17 05:01N 47°39' W 122°20'4 6.5
2018-Apr-17 04:24N 47°40' W 122°15'3 1.5
2018-Apr-17 02:30N 47°43' W 122°16'4 6.6
2018-Apr-17 01:57N 47°39' W 122°16'2 5.6
2018-Apr-17 01:31N 47°39' W 122°20'2 4.4
2018-Apr-17 01:00N 47°40' W 122°23'1 1.1
2018-Apr-17 00:30N 47°40' W 122°24'0 0.0
2018-Apr-17 00:00N 47°40' W 122°24'0 0.0
2018-Apr-16 23:30N 47°40' W 122°24'0 0.0
2018-Apr-16 23:00N 47°40' W 122°24'0 0.3
2018-Apr-16 22:29N 47°40' W 122°24'1 2.2
2018-Apr-16 22:01N 47°41' W 122°25'2 4.8
2018-Apr-16 21:30N 47°39' W 122°27'3 6.8
2018-Apr-16 21:01N 47°35' W 122°26'3 6.7
2018-Apr-16 20:31N 47°32' W 122°28'4 8.4
2018-Apr-16 20:00N 47°28' W 122°31'4 8.3
2018-Apr-16 19:30N 47°24' W 122°32'4 8.8
2018-Apr-16 19:00N 47°20' W 122°33'5 9.4
2018-Apr-16 18:30N 47°15' W 122°34'5 8.7
2018-Apr-16 17:57N 47°11' W 122°37'3 7.0
2018-Apr-16 17:31N 47°08' W 122°39'0 0.0
2018-Apr-16 16:59N 47°08' W 122°39'0 0.0
2018-Apr-16 16:28N 47°08' W 122°39'0 0.1
2018-Apr-16 15:56N 47°08' W 122°39'0 0.0
2018-Apr-16 15:30N 47°08' W 122°39'0 0.0
2018-Apr-16 14:59N 47°08' W 122°39'2 4.1
2018-Apr-16 14:30N 47°10' W 122°38'3 6.7
2018-Apr-16 14:00N 47°13' W 122°35'3 7.1
2018-Apr-16 13:30N 47°16' W 122°33'4 7.5
2018-Apr-16 13:00N 47°20' W 122°33'4 7.5
2018-Apr-16 12:30N 47°23' W 122°32'4 7.5
2018-Apr-16 12:00N 47°27' W 122°31'4 7.7
2018-Apr-16 11:31N 47°31' W 122°29'4 8.5
2018-Apr-16 11:00N 47°35' W 122°26'3 5.8
2018-Apr-16 10:31N 47°35' W 122°22'2 4.6
2018-Apr-16 10:00N 47°33' W 122°20'0 0.5
2018-Apr-16 09:30N 47°33' W 122°20'1 2.1
2018-Apr-16 08:58N 47°34' W 122°21'0 0.1
2018-Apr-16 08:29N 47°34' W 122°21'0 0.7
2018-Apr-16 08:00N 47°34' W 122°21'0 0.2
2018-Apr-16 06:32N 47°34' W 122°21'0 0.0
2018-Apr-16 06:29N 47°34' W 122°21'1 1.2
2018-Apr-16 06:01N 47°34' W 122°21'0 0.6
2018-Apr-16 05:30N 47°34' W 122°21'0 0.3
2018-Apr-16 05:00N 47°34' W 122°21'2 2.9
2018-Apr-16 04:28N 47°35' W 122°21'0 0.0
2018-Apr-16 04:00N 47°35' W 122°21'1 1.7
2018-Apr-16 03:26N 47°34' W 122°21'  

Dump ship's entire track history